createdAt,value
2023-01-23T00:04:16.562Z,92041.07
2023-01-23T00:12:45.499Z,92052.98
2023-01-23T00:21:13.936Z,92034.78
2023-01-23T00:29:36.900Z,92019.09
2023-01-23T00:37:59.873Z,92000.74
2023-01-23T00:46:23.929Z,91997.38
2023-01-23T00:54:46.836Z,92007.25
2023-01-23T01:03:09.931Z,92014.10
2023-01-23T01:11:33.128Z,92001.58
2023-01-23T01:19:56.114Z,91996.85
2023-01-23T01:28:19.264Z,92012.54
2023-01-23T01:36:43.986Z,92031.62
2023-01-23T01:45:27.628Z,92043.77
2023-01-23T01:54:05.599Z,92055.45
2023-01-23T02:02:43.896Z,92067.38
2023-01-23T02:11:07.915Z,92076.02
2023-01-23T02:20:19.769Z,92076.70
2023-01-23T02:28:46.590Z,92083.14
2023-01-23T02:37:14.541Z,92077.40
2023-01-23T02:45:38.953Z,92072.81
2023-01-23T02:54:02.451Z,92086.40
2023-01-23T03:02:25.785Z,92086.20
2023-01-23T03:10:48.896Z,92068.48
2023-01-23T03:19:12.954Z,92070.25
2023-01-23T03:27:37.586Z,92075.20
2023-01-23T03:36:01.289Z,92061.70
2023-01-23T03:44:24.586Z,92055.89
2023-01-23T03:52:48.150Z,92051.55
2023-01-23T04:01:13.930Z,92038.71
2023-01-23T04:09:38.325Z,92019.94
2023-01-23T04:18:02.997Z,92017.70
2023-01-23T04:26:26.367Z,92053.72
2023-01-23T04:34:49.670Z,92071.75
2023-01-23T04:43:12.833Z,92053.55
2023-01-23T04:51:52.850Z,92043.43
2023-01-23T05:00:19.337Z,92058.19
2023-01-23T05:08:43.731Z,92077.46
2023-01-23T05:17:15.053Z,92053.85
2023-01-23T05:25:43.069Z,92042.29
2023-01-23T05:34:06.120Z,92060.36
2023-01-23T05:42:29.933Z,92089.86
2023-01-23T05:51:11.588Z,92117.41
2023-01-23T05:59:34.990Z,92143.15
2023-01-23T06:08:17.771Z,92137.02
2023-01-23T06:16:41.222Z,92113.68
2023-01-23T06:25:05.834Z,92113.15
2023-01-23T06:33:31.092Z,92121.46
2023-01-23T06:41:57.572Z,92117.04
2023-01-23T06:50:22.789Z,92132.61
2023-01-23T06:58:47.279Z,92137.67
2023-01-23T07:07:19.808Z,92100.30
2023-01-23T07:15:47.632Z,92099.55
2023-01-23T07:24:11.158Z,92117.96
2023-01-23T07:32:34.213Z,92111.27
2023-01-23T07:40:59.101Z,92099.47
2023-01-23T07:49:21.968Z,92114.13
2023-01-23T07:57:44.933Z,92127.85
2023-01-23T08:06:08.716Z,92119.15
2023-01-23T08:14:31.711Z,92120.72
2023-01-23T08:22:56.552Z,92136.40
2023-01-23T08:31:19.573Z,92131.21
2023-01-23T08:39:42.820Z,92135.05
2023-01-23T08:48:05.770Z,92175.83
2023-01-23T08:56:28.732Z,92180.71
2023-01-23T09:04:51.685Z,92192.01
2023-01-23T09:13:16.169Z,92197.85
2023-01-23T09:21:39.045Z,92193.05
2023-01-23T09:30:01.965Z,92208.14
2023-01-23T09:38:25.226Z,92218.61
2023-01-23T09:47:02.673Z,92208.31
2023-01-23T09:55:36.239Z,92217.94
2023-01-23T10:04:00.963Z,92251.10
2023-01-23T10:12:36.547Z,92242.52
2023-01-23T10:21:06.080Z,92253.23
2023-01-23T10:29:31.866Z,92295.05
2023-01-23T10:38:07.585Z,92311.76
2023-01-23T10:46:40.700Z,92321.85
2023-01-23T10:55:28.484Z,92355.02
2023-01-23T11:03:51.775Z,92356.70
2023-01-23T11:12:21.541Z,92353.26
2023-01-23T11:20:55.693Z,92373.08
2023-01-23T11:29:22.913Z,92400.00
2023-01-23T11:37:46.270Z,92422.28
2023-01-23T11:46:27.912Z,92435.42
2023-01-23T11:55:12.453Z,92418.60
2023-01-23T12:03:50.368Z,92449.64
2023-01-23T12:12:26.845Z,92457.02
2023-01-23T12:21:05.900Z,92455.81
2023-01-23T12:29:34.880Z,92479.42
2023-01-23T12:38:15.692Z,92505.94
2023-01-23T12:46:57.284Z,92496.21
2023-01-23T12:55:31.287Z,92493.91
2023-01-23T13:04:03.285Z,92489.42
2023-01-23T13:12:28.335Z,92493.67
2023-01-23T13:21:18.942Z,92480.92
2023-01-23T13:29:50.352Z,92418.98
2023-01-23T13:38:22.500Z,92392.60
2023-01-23T14:22:13.784Z,92376.38
2023-01-23T14:30:37.264Z,92353.83
2023-01-23T14:39:02.138Z,92340.75
2023-01-23T14:47:34.089Z,92326.96
2023-01-23T14:56:00.849Z,92305.16
2023-01-23T15:04:28.002Z,92285.48
2023-01-23T15:12:56.257Z,92288.06
2023-01-23T15:21:41.037Z,92286.60
2023-01-23T15:30:36.429Z,92267.87
2023-01-23T15:39:00.174Z,92248.50
2023-01-23T15:47:28.052Z,92263.66
2023-01-23T15:55:51.398Z,92264.34
2023-01-23T16:04:14.830Z,92240.88
2023-01-23T16:12:40.080Z,92239.83
2023-01-23T16:21:03.180Z,92245.48
2023-01-23T16:29:31.423Z,92253.85
2023-01-23T16:37:57.317Z,92234.99
2023-01-23T16:46:20.339Z,92227.34
2023-01-23T16:54:43.623Z,92238.23
2023-01-23T17:03:09.994Z,92238.64
2023-01-23T17:11:36.720Z,92210.77
2023-01-23T17:20:02.762Z,92207.70
2023-01-23T17:28:26.457Z,92213.88
2023-01-23T17:36:50.950Z,92203.27
2023-01-23T17:45:15.580Z,92198.27
2023-01-23T17:53:41.671Z,92206.60
2023-01-23T18:02:24.852Z,92219.86
2023-01-23T18:10:51.727Z,92215.70
2023-01-23T18:19:21.217Z,92208.15
2023-01-23T18:27:50.092Z,92206.42
2023-01-23T18:36:24.723Z,92208.85
2023-01-23T18:45:01.598Z,92193.40
2023-01-23T18:54:10.998Z,92175.91
2023-01-23T19:02:50.658Z,92187.63
2023-01-23T19:11:32.966Z,92220.08
2023-01-23T19:20:22.663Z,92233.02
2023-01-23T19:28:46.308Z,92222.72
2023-01-23T19:37:09.270Z,92234.55
2023-01-23T19:45:37.458Z,92256.60
2023-01-23T19:54:01.444Z,92269.98
2023-01-23T20:02:32.961Z,92284.11
2023-01-23T20:10:56.275Z,92298.80
2023-01-23T20:19:19.528Z,92287.81
2023-01-23T20:27:43.773Z,92287.36
2023-01-23T20:36:08.136Z,92301.95
2023-01-23T20:44:31.174Z,92318.14
2023-01-23T20:53:12.828Z,92305.27
2023-01-23T21:01:58.199Z,92291.08
2023-01-23T21:10:21.347Z,92307.05
2023-01-23T21:18:47.120Z,92308.23
2023-01-23T21:27:10.031Z,92283.05
2023-01-23T21:35:33.471Z,92272.75
2023-01-23T21:43:56.577Z,92276.32
2023-01-23T21:52:19.527Z,92289.90
2023-01-23T22:01:01.273Z,92279.92
2023-01-23T22:09:24.963Z,92285.47
2023-01-23T22:17:47.957Z,92288.69
2023-01-23T22:26:12.542Z,92273.91
2023-01-23T22:34:36.233Z,92271.33
2023-01-23T22:42:59.463Z,92283.73
2023-01-23T22:51:27.427Z,92267.64
2023-01-23T22:59:50.921Z,92269.63
2023-01-23T23:08:14.975Z,92287.52
2023-01-23T23:16:39.080Z,92268.23
2023-01-23T23:25:04.631Z,92248.35
2023-01-23T23:33:29.119Z,92249.66
2023-01-23T23:41:52.720Z,92268.31
2023-01-23T23:50:16.057Z,92275.17
2023-01-23T23:58:39.112Z,92264.98
